createdAt,value
2018-08-11T00:00:04.477Z,18.1666666667
2018-08-11T00:00:17.018Z,18.1666666667
2018-08-11T00:00:29.640Z,18.2222222222
2018-08-11T00:00:42.172Z,18.2222222222
2018-08-11T00:00:54.704Z,18.2222222222
2018-08-11T00:01:07.247Z,18.2222222222
2018-08-11T00:01:19.756Z,18.2222222222
2018-08-11T00:01:32.278Z,18.2222222222
2018-08-11T00:01:44.804Z,18.2222222222
2018-08-11T00:01:57.315Z,18.2777777778
2018-08-11T00:02:09.845Z,18.2777777778
2018-08-11T00:02:22.399Z,18.2777777778
2018-08-11T00:02:35.072Z,18.2222222222
2018-08-11T00:02:47.598Z,18.2777777778
2018-08-11T00:03:00.133Z,18.2777777778
2018-08-11T00:03:12.695Z,18.2777777778
2018-08-11T00:03:25.212Z,18.2777777778
2018-08-11T00:03:37.725Z,18.2777777778
2018-08-11T00:03:50.237Z,18.2777777778
2018-08-11T00:04:02.758Z,18.3333333333
2018-08-11T00:04:15.359Z,18.3333333333
2018-08-11T00:04:27.872Z,18.3333333333
2018-08-11T00:04:40.376Z,18.3333333333
2018-08-11T00:04:52.899Z,18.3333333333
2018-08-11T00:05:05.442Z,18.3333333333
2018-08-11T00:05:17.966Z,18.3333333333
2018-08-11T00:05:30.495Z,18.3333333333
2018-08-11T00:05:43.034Z,18.3333333333
2018-08-11T00:05:55.539Z,18.3333333333
2018-08-11T00:06:08.149Z,18.3888888889
2018-08-11T00:06:20.652Z,18.3888888889
2018-08-11T00:06:33.212Z,18.3888888889
2018-08-11T00:06:45.738Z,18.3888888889
2018-08-11T00:06:58.259Z,18.3888888889
2018-08-11T00:07:10.777Z,18.3888888889
2018-08-11T00:07:23.307Z,18.3888888889
2018-08-11T00:07:35.813Z,18.3888888889
2018-08-11T00:07:48.333Z,18.3888888889
2018-08-11T00:08:00.909Z,18.4444444444
2018-08-11T00:08:13.452Z,18.4444444444
2018-08-11T00:08:25.970Z,18.4444444444
2018-08-11T00:08:38.508Z,18.4444444444
2018-08-11T00:08:51.163Z,18.4444444444
2018-08-11T00:09:03.841Z,18.4444444444
2018-08-11T00:09:16.370Z,18.4444444444
2018-08-11T00:09:28.915Z,18.4444444444
2018-08-11T00:09:41.433Z,18.5
2018-08-11T00:09:53.956Z,18.4444444444
2018-08-11T00:10:06.483Z,18.5
2018-08-11T00:10:19.014Z,18.5
2018-08-11T00:10:31.541Z,18.5
2018-08-11T00:10:44.057Z,18.5
2018-08-11T00:10:56.569Z,18.5
2018-08-11T00:11:09.090Z,18.5
2018-08-11T00:11:21.591Z,18.5
2018-08-11T00:11:34.118Z,18.5
2018-08-11T00:11:46.632Z,18.5555555556
2018-08-11T00:11:59.182Z,18.5
2018-08-11T00:12:11.737Z,18.5555555556
2018-08-11T00:12:24.308Z,18.5555555556
2018-08-11T00:12:36.823Z,18.5
2018-08-11T00:12:49.355Z,18.5555555556
2018-08-11T00:13:01.874Z,18.5555555556
2018-08-11T00:13:14.398Z,18.5555555556
2018-08-11T00:13:26.932Z,18.5555555556
2018-08-11T00:13:39.470Z,18.5555555556
2018-08-11T00:13:51.979Z,18.5
2018-08-11T00:14:04.535Z,18.5555555556
2018-08-11T00:14:17.062Z,18.5555555556
2018-08-11T00:14:29.583Z,18.5555555556
2018-08-11T00:14:42.100Z,18.5555555556
2018-08-11T00:14:54.612Z,18.5555555556
2018-08-11T00:15:07.122Z,18.5555555556
2018-08-11T00:15:19.676Z,18.5555555556
2018-08-11T00:15:32.254Z,18.5555555556
2018-08-11T00:15:44.786Z,18.5555555556
2018-08-11T00:15:57.304Z,18.5555555556
2018-08-11T00:16:09.823Z,18.5555555556
2018-08-11T00:16:22.341Z,18.5555555556
2018-08-11T00:16:34.863Z,18.5555555556
2018-08-11T00:16:47.363Z,18.5555555556
2018-08-11T00:16:59.871Z,18.5555555556
2018-08-11T00:17:12.368Z,18.5555555556
2018-08-11T00:17:24.865Z,18.5555555556
2018-08-11T00:17:37.361Z,18.5555555556
2018-08-11T00:17:49.893Z,18.5555555556
2018-08-11T00:18:02.399Z,18.5555555556
2018-08-11T00:18:14.902Z,18.5555555556
2018-08-11T00:18:27.462Z,18.5555555556
2018-08-11T00:18:39.968Z,18.5555555556
2018-08-11T00:18:52.486Z,18.5555555556
2018-08-11T00:19:05.014Z,18.5555555556
2018-08-11T00:19:17.537Z,18.5555555556
2018-08-11T00:19:30.037Z,18.5555555556
2018-08-11T00:19:42.536Z,18.5555555556
2018-08-11T00:19:55.053Z,18.5555555556
2018-08-11T00:20:07.567Z,18.5555555556
2018-08-11T00:20:20.068Z,18.5555555556
2018-08-11T00:20:32.583Z,18.5555555556
2018-08-11T00:20:45.205Z,18.5555555556
2018-08-11T00:20:57.783Z,18.5555555556
2018-08-11T00:21:10.292Z,18.5555555556
2018-08-11T00:21:22.806Z,18.5555555556
2018-08-11T00:21:35.323Z,18.5555555556
2018-08-11T00:21:47.844Z,18.5555555556
2018-08-11T00:22:00.345Z,18.5555555556
2018-08-11T00:22:13.019Z,18.5555555556
2018-08-11T00:22:25.528Z,18.5555555556
2018-08-11T00:22:38.031Z,18.5555555556
2018-08-11T00:22:50.552Z,18.5555555556
2018-08-11T00:23:03.066Z,18.5555555556
2018-08-11T00:23:15.783Z,18.5555555556
2018-08-11T00:23:28.320Z,18.5555555556
2018-08-11T00:23:40.839Z,18.5555555556
2018-08-11T00:23:53.360Z,18.5
2018-08-11T00:24:05.868Z,18.5555555556
2018-08-11T00:24:18.385Z,18.5555555556
2018-08-11T00:24:30.910Z,18.5
2018-08-11T00:24:43.433Z,18.5555555556
2018-08-11T00:24:55.939Z,18.5
2018-08-11T00:25:08.450Z,18.5
2018-08-11T00:25:20.976Z,18.5
2018-08-11T00:25:33.511Z,18.5
2018-08-11T00:25:46.041Z,18.5
2018-08-11T00:25:58.665Z,18.5555555556
2018-08-11T00:26:11.195Z,18.5
2018-08-11T00:26:23.699Z,18.5555555556
2018-08-11T00:26:36.212Z,18.5
2018-08-11T00:26:48.718Z,18.5
2018-08-11T00:27:01.233Z,18.5
2018-08-11T00:27:14.037Z,18.5
2018-08-11T00:27:26.564Z,18.5
2018-08-11T00:27:39.099Z,18.5555555556
2018-08-11T00:27:51.601Z,18.5555555556
2018-08-11T00:28:04.164Z,18.5555555556
2018-08-11T00:28:16.683Z,18.5555555556
2018-08-11T00:28:29.205Z,18.5555555556
2018-08-11T00:28:41.889Z,18.5555555556
2018-08-11T00:28:54.404Z,18.5555555556
2018-08-11T00:29:06.916Z,18.5555555556
2018-08-11T00:29:19.452Z,18.5555555556
2018-08-11T00:29:32.252Z,18.5555555556
2018-08-11T00:29:44.811Z,18.5555555556
2018-08-11T00:29:57.327Z,18.5
2018-08-11T00:30:09.834Z,18.5555555556
2018-08-11T00:30:22.356Z,18.5555555556
2018-08-11T00:30:34.913Z,18.5555555556
2018-08-11T00:30:47.467Z,18.5555555556
2018-08-11T00:30:59.987Z,18.5555555556
2018-08-11T00:31:12.494Z,18.5
2018-08-11T00:31:25.012Z,18.5555555556
2018-08-11T00:31:37.520Z,18.5
2018-08-11T00:31:50.032Z,18.5555555556
2018-08-11T00:32:02.541Z,18.5555555556
2018-08-11T00:32:15.076Z,18.5555555556
2018-08-11T00:32:27.586Z,18.5555555556
2018-08-11T00:32:40.275Z,18.5555555556
2018-08-11T00:32:52.775Z,18.5555555556
2018-08-11T00:33:05.272Z,18.5555555556
2018-08-11T00:33:17.779Z,18.5555555556
2018-08-11T00:33:30.283Z,18.5555555556
2018-08-11T00:33:42.789Z,18.5555555556
2018-08-11T00:33:55.310Z,18.5555555556
2018-08-11T00:34:07.822Z,18.5555555556
2018-08-11T00:34:20.340Z,18.5555555556
2018-08-11T00:34:32.882Z,18.5555555556
2018-08-11T00:34:45.395Z,18.5555555556
2018-08-11T00:34:57.901Z,18.5555555556
2018-08-11T00:35:10.399Z,18.5555555556
2018-08-11T00:35:22.939Z,18.5555555556
2018-08-11T00:35:35.501Z,18.5555555556
2018-08-11T00:35:47.991Z,18.5555555556
2018-08-11T00:36:00.506Z,18.5555555556
2018-08-11T00:36:12.999Z,18.5555555556
2018-08-11T00:36:25.924Z,18.5555555556
2018-08-11T00:36:39.484Z,18.5555555556
2018-08-11T00:36:51.995Z,18.5555555556
2018-08-11T00:37:04.520Z,18.5555555556
2018-08-11T00:37:17.195Z,18.5555555556
2018-08-11T00:37:29.749Z,18.5555555556
2018-08-11T00:37:42.269Z,18.5555555556
2018-08-11T00:37:54.785Z,18.5555555556
2018-08-11T00:38:07.302Z,18.5555555556
2018-08-11T00:38:19.834Z,18.5555555556
2018-08-11T00:38:32.368Z,18.5555555556
2018-08-11T00:38:44.901Z,18.5555555556
2018-08-11T00:38:57.408Z,18.5555555556
2018-08-11T00:39:09.959Z,18.5555555556
2018-08-11T00:39:22.690Z,18.5555555556
2018-08-11T00:39:35.204Z,18.5555555556
2018-08-11T00:39:47.736Z,18.5555555556
2018-08-11T00:40:00.250Z,18.5555555556
2018-08-11T00:40:12.780Z,18.5555555556
2018-08-11T00:40:25.338Z,18.5555555556
2018-08-11T00:40:37.843Z,18.5555555556
2018-08-11T00:40:50.363Z,18.5555555556
2018-08-11T00:41:02.862Z,18.5555555556
2018-08-11T00:41:15.378Z,18.5555555556
2018-08-11T00:41:27.883Z,18.5555555556
2018-08-11T00:41:40.400Z,18.5555555556
2018-08-11T00:41:52.902Z,18.5555555556
2018-08-11T00:42:05.419Z,18.5555555556
2018-08-11T00:42:18.002Z,18.5555555556
2018-08-11T00:42:30.551Z,18.5555555556
2018-08-11T00:42:43.083Z,18.5
2018-08-11T00:42:55.665Z,18.5555555556
2018-08-11T00:43:08.207Z,18.5555555556
2018-08-11T00:43:20.721Z,18.5555555556
2018-08-11T00:43:33.246Z,18.5555555556
2018-08-11T00:43:45.758Z,18.5555555556
2018-08-11T00:43:58.282Z,18.5555555556
2018-08-11T00:44:10.793Z,18.5555555556
2018-08-11T00:44:23.494Z,18.5555555556
2018-08-11T00:44:36.071Z,18.5555555556
2018-08-11T00:44:48.595Z,18.5
2018-08-11T00:45:01.098Z,18.5555555556
2018-08-11T00:45:13.627Z,18.5555555556
2018-08-11T00:45:26.161Z,18.5555555556
2018-08-11T00:45:38.677Z,18.5555555556
2018-08-11T00:45:51.211Z,18.5555555556
2018-08-11T00:46:03.717Z,18.5
2018-08-11T00:46:16.242Z,18.5
2018-08-11T00:46:28.766Z,18.5555555556
2018-08-11T00:46:41.302Z,18.5555555556
2018-08-11T00:46:53.813Z,18.5
2018-08-11T00:47:06.319Z,18.5
2018-08-11T00:47:18.831Z,18.5
2018-08-11T00:47:31.333Z,18.5
2018-08-11T00:47:43.903Z,18.5
2018-08-11T00:47:56.406Z,18.5
2018-08-11T00:48:08.905Z,18.5
2018-08-11T00:48:21.455Z,18.5
2018-08-11T00:48:33.971Z,18.5
2018-08-11T00:48:46.476Z,18.5
2018-08-11T00:48:59.164Z,18.5
2018-08-11T00:49:11.672Z,18.5
2018-08-11T00:49:24.625Z,18.5
2018-08-11T00:49:38.426Z,18.5
2018-08-11T00:49:50.956Z,18.5
2018-08-11T00:50:03.495Z,18.5
2018-08-11T00:50:16.018Z,18.5
2018-08-11T00:50:28.551Z,18.5
2018-08-11T00:50:41.072Z,18.5
2018-08-11T00:50:53.607Z,18.5
2018-08-11T00:51:06.131Z,18.4444444444
2018-08-11T00:51:18.637Z,18.5
2018-08-11T00:51:31.142Z,18.4444444444
2018-08-11T00:51:43.838Z,18.4444444444
2018-08-11T00:51:56.333Z,18.5
2018-08-11T00:52:08.858Z,18.4444444444
2018-08-11T00:52:21.368Z,18.4444444444
2018-08-11T00:52:33.934Z,18.4444444444
2018-08-11T00:52:46.470Z,18.4444444444
2018-08-11T00:52:58.999Z,18.4444444444
2018-08-11T00:53:11.516Z,18.4444444444
2018-08-11T00:53:24.086Z,18.4444444444
2018-08-11T00:53:36.584Z,18.4444444444
2018-08-11T00:53:49.100Z,18.3888888889
2018-08-11T00:54:01.748Z,18.4444444444
2018-08-11T00:54:14.267Z,18.4444444444
2018-08-11T00:54:26.786Z,18.3888888889
2018-08-11T00:54:39.292Z,18.4444444444
2018-08-11T00:54:51.799Z,18.3888888889
2018-08-11T00:55:04.311Z,18.3888888889
2018-08-11T00:55:16.854Z,18.3888888889
2018-08-11T00:55:29.380Z,18.3888888889
2018-08-11T00:55:41.919Z,18.4444444444
2018-08-11T00:55:54.463Z,18.3888888889
2018-08-11T00:56:06.977Z,18.3888888889
2018-08-11T00:56:19.478Z,18.3888888889
2018-08-11T00:56:32.010Z,18.3888888889
2018-08-11T00:56:44.519Z,18.3888888889
2018-08-11T00:56:57.023Z,18.3888888889
2018-08-11T00:57:09.513Z,18.3888888889
2018-08-11T00:57:22.401Z,18.3888888889
2018-08-11T00:57:34.937Z,18.3888888889
2018-08-11T00:57:47.449Z,18.3888888889
2018-08-11T00:57:59.973Z,18.3888888889
2018-08-11T00:58:12.492Z,18.3888888889
2018-08-11T00:58:25.006Z,18.3888888889
2018-08-11T00:58:37.505Z,18.3333333333
2018-08-11T00:58:50.018Z,18.3333333333
2018-08-11T00:59:02.544Z,18.3333333333
2018-08-11T00:59:15.086Z,18.3333333333
2018-08-11T00:59:27.597Z,18.3333333333
2018-08-11T00:59:40.127Z,18.3333333333
2018-08-11T00:59:52.626Z,18.3333333333
2018-08-11T01:00:05.161Z,18.3333333333
2018-08-11T01:00:17.699Z,18.3333333333
2018-08-11T01:00:30.234Z,18.3333333333
2018-08-11T01:00:42.769Z,18.3333333333
2018-08-11T01:00:55.315Z,18.3333333333
2018-08-11T01:01:07.839Z,18.3333333333
2018-08-11T01:01:20.351Z,18.3333333333
2018-08-11T01:01:32.886Z,18.3333333333
2018-08-11T01:01:45.410Z,18.3333333333
2018-08-11T01:01:57.943Z,18.3333333333
2018-08-11T01:02:10.464Z,18.3333333333
2018-08-11T01:02:23.632Z,18.3333333333
2018-08-11T01:02:37.078Z,18.3333333333
2018-08-11T01:02:49.606Z,18.3333333333
2018-08-11T01:03:02.115Z,18.3333333333
2018-08-11T01:03:14.636Z,18.3333333333
2018-08-11T01:03:27.175Z,18.3333333333
2018-08-11T01:03:39.717Z,18.3333333333
2018-08-11T01:03:52.239Z,18.3333333333
2018-08-11T01:04:04.748Z,18.3333333333
2018-08-11T01:04:17.400Z,18.3333333333
2018-08-11T01:04:29.965Z,18.2777777778
2018-08-11T01:04:42.484Z,18.3333333333
2018-08-11T01:04:54.994Z,18.2777777778
2018-08-11T01:05:07.553Z,18.3333333333
2018-08-11T01:05:20.155Z,18.3333333333
2018-08-11T01:05:32.663Z,18.2777777778
2018-08-11T01:05:45.184Z,18.2777777778
2018-08-11T01:05:57.691Z,18.3333333333
2018-08-11T01:06:10.227Z,18.2777777778
2018-08-11T01:06:22.739Z,18.3333333333
2018-08-11T01:06:35.274Z,18.2777777778
2018-08-11T01:06:47.802Z,18.2777777778
2018-08-11T01:07:00.439Z,18.3333333333
2018-08-11T01:07:13.013Z,18.2777777778
2018-08-11T01:07:25.532Z,18.2777777778
2018-08-11T01:07:38.117Z,18.2777777778
2018-08-11T01:07:50.640Z,18.2777777778
2018-08-11T01:08:03.207Z,18.2777777778
2018-08-11T01:08:15.723Z,18.3333333333
2018-08-11T01:08:28.233Z,18.2777777778
2018-08-11T01:08:40.760Z,18.2777777778
2018-08-11T01:08:53.282Z,18.2777777778
2018-08-11T01:09:05.939Z,18.2777777778
2018-08-11T01:09:18.465Z,18.2777777778
2018-08-11T01:09:30.989Z,18.3333333333
2018-08-11T01:09:43.542Z,18.2777777778
2018-08-11T01:09:56.054Z,18.2777777778
2018-08-11T01:10:08.569Z,18.2777777778
2018-08-11T01:10:21.086Z,18.2777777778
2018-08-11T01:10:33.605Z,18.3333333333
2018-08-11T01:10:46.279Z,18.2777777778
2018-08-11T01:10:59.661Z,18.2777777778
2018-08-11T01:11:12.686Z,18.2777777778
2018-08-11T01:11:25.360Z,18.2777777778
2018-08-11T01:11:37.949Z,18.2777777778
2018-08-11T01:11:50.487Z,18.2777777778
2018-08-11T01:12:03.020Z,18.3333333333
2018-08-11T01:12:15.549Z,18.2777777778
2018-08-11T01:12:28.071Z,18.2777777778
2018-08-11T01:12:40.577Z,18.2777777778
2018-08-11T01:12:53.113Z,18.3333333333
2018-08-11T01:13:05.637Z,18.2777777778
2018-08-11T01:13:18.134Z,18.2777777778
2018-08-11T01:13:30.641Z,18.2777777778
2018-08-11T01:13:43.155Z,18.2777777778
2018-08-11T01:13:55.648Z,18.2777777778
2018-08-11T01:14:08.158Z,18.2777777778
2018-08-11T01:14:20.678Z,18.2777777778
2018-08-11T01:14:33.196Z,18.2777777778
2018-08-11T01:14:45.707Z,18.2777777778
2018-08-11T01:14:58.222Z,18.2777777778
2018-08-11T01:15:10.765Z,18.3333333333
2018-08-11T01:15:23.294Z,18.2777777778
2018-08-11T01:15:35.842Z,18.2777777778
2018-08-11T01:15:48.396Z,18.2777777778
2018-08-11T01:16:00.939Z,18.2777777778
2018-08-11T01:16:13.458Z,18.2777777778
2018-08-11T01:16:25.985Z,18.2777777778
2018-08-11T01:16:38.492Z,18.2777777778
2018-08-11T01:16:51.000Z,18.2777777778
2018-08-11T01:17:03.517Z,18.2777777778
2018-08-11T01:17:16.029Z,18.2777777778
2018-08-11T01:17:28.560Z,18.2777777778
2018-08-11T01:17:41.089Z,18.2777777778
2018-08-11T01:17:53.615Z,18.2777777778
2018-08-11T01:18:06.142Z,18.2777777778
2018-08-11T01:18:18.661Z,18.2777777778
2018-08-11T01:18:31.184Z,18.2777777778
2018-08-11T01:18:43.786Z,18.2777777778
2018-08-11T01:18:56.308Z,18.2777777778
2018-08-11T01:19:08.826Z,18.2777777778
2018-08-11T01:19:21.384Z,18.2222222222
2018-08-11T01:19:33.899Z,18.2777777778
2018-08-11T01:19:46.423Z,18.2777777778
2018-08-11T01:19:58.986Z,18.2222222222
2018-08-11T01:20:11.529Z,18.2222222222
2018-08-11T01:20:24.082Z,18.2777777778
2018-08-11T01:20:36.604Z,18.2777777778
2018-08-11T01:20:49.210Z,18.2222222222
2018-08-11T01:21:01.750Z,18.2222222222
2018-08-11T01:21:14.281Z,18.2222222222
2018-08-11T01:21:26.799Z,18.2222222222
2018-08-11T01:21:39.321Z,18.2222222222
2018-08-11T01:21:51.823Z,18.2222222222
2018-08-11T01:22:04.579Z,18.2222222222
2018-08-11T01:22:17.105Z,18.2222222222
2018-08-11T01:22:29.619Z,18.2222222222
2018-08-11T01:22:42.161Z,18.2222222222
2018-08-11T01:22:54.668Z,18.2222222222
2018-08-11T01:23:07.188Z,18.2222222222
2018-08-11T01:23:19.824Z,18.2222222222
2018-08-11T01:23:32.358Z,18.2222222222
2018-08-11T01:23:44.895Z,18.2222222222
2018-08-11T01:23:57.401Z,18.2222222222
2018-08-11T01:24:09.970Z,18.2222222222
2018-08-11T01:24:22.494Z,18.2222222222
2018-08-11T01:24:35.012Z,18.1666666667
2018-08-11T01:24:47.556Z,18.1666666667
2018-08-11T01:25:00.064Z,18.1666666667
2018-08-11T01:25:12.613Z,18.1666666667
2018-08-11T01:25:25.147Z,18.1666666667
2018-08-11T01:25:37.643Z,18.1666666667
2018-08-11T01:25:50.151Z,18.1666666667
2018-08-11T01:26:02.673Z,18.1666666667
2018-08-11T01:26:15.198Z,18.1666666667
2018-08-11T01:26:27.869Z,18.1666666667
2018-08-11T01:26:40.376Z,18.1666666667
2018-08-11T01:26:52.892Z,18.1666666667
2018-08-11T01:27:05.438Z,18.1666666667
2018-08-11T01:27:17.952Z,18.1666666667
2018-08-11T01:27:30.463Z,18.1666666667
2018-08-11T01:27:42.983Z,18.1666666667
2018-08-11T01:27:55.494Z,18.1666666667
2018-08-11T01:28:08.013Z,18.1666666667
2018-08-11T01:28:20.532Z,18.1111111111
2018-08-11T01:28:33.050Z,18.1111111111
2018-08-11T01:28:45.763Z,18.1666666667
2018-08-11T01:28:58.289Z,18.1111111111
2018-08-11T01:29:10.800Z,18.1111111111
2018-08-11T01:29:23.426Z,18.1111111111
2018-08-11T01:29:35.944Z,18.1111111111
2018-08-11T01:29:48.457Z,18.1111111111
2018-08-11T01:30:00.981Z,18.1111111111
2018-08-11T01:30:13.499Z,18.1111111111
2018-08-11T01:30:26.014Z,18.1111111111
2018-08-11T01:30:38.515Z,18.1111111111
2018-08-11T01:30:51.041Z,18.1111111111
2018-08-11T01:31:03.563Z,18.1111111111
2018-08-11T01:31:16.090Z,18.1111111111
2018-08-11T01:31:28.643Z,18.0555555556
2018-08-11T01:31:41.151Z,18.1111111111
2018-08-11T01:31:53.668Z,18.1111111111
2018-08-11T01:32:06.238Z,18.1111111111
2018-08-11T01:32:18.766Z,18.1111111111
2018-08-11T01:32:31.460Z,18.1111111111
2018-08-11T01:32:44.016Z,18.0555555556
2018-08-11T01:32:56.562Z,18.1111111111
2018-08-11T01:33:09.094Z,18.1111111111
2018-08-11T01:33:21.652Z,18.1111111111
2018-08-11T01:33:34.154Z,18.0555555556
2018-08-11T01:33:46.668Z,18.0555555556
2018-08-11T01:33:59.211Z,18.0555555556
2018-08-11T01:34:11.751Z,18.0555555556
2018-08-11T01:34:24.331Z,18.0555555556
2018-08-11T01:34:36.853Z,18.0555555556
2018-08-11T01:34:49.375Z,18.0555555556
2018-08-11T01:35:01.898Z,18.0555555556
2018-08-11T01:35:14.410Z,18.0555555556
2018-08-11T01:35:26.940Z,18.0555555556
2018-08-11T01:35:39.478Z,18.0555555556
2018-08-11T01:35:51.997Z,18.0555555556
2018-08-11T01:36:04.553Z,18.0555555556
2018-08-11T01:36:17.094Z,18.0555555556
2018-08-11T01:36:29.633Z,18.0555555556
2018-08-11T01:36:42.177Z,18.0555555556
2018-08-11T01:36:54.683Z,18.0555555556
2018-08-11T01:37:07.194Z,18
2018-08-11T01:37:19.840Z,18
2018-08-11T01:37:32.356Z,18.0555555556
2018-08-11T01:37:44.888Z,18
2018-08-11T01:37:57.529Z,18
2018-08-11T01:38:10.048Z,18
2018-08-11T01:38:22.555Z,18
2018-08-11T01:38:35.088Z,18
2018-08-11T01:38:47.592Z,18
2018-08-11T01:39:00.100Z,18
2018-08-11T01:39:12.661Z,18
2018-08-11T01:39:25.356Z,17.9444444444
2018-08-11T01:39:37.902Z,18
2018-08-11T01:39:50.410Z,18
2018-08-11T01:40:02.946Z,18
2018-08-11T01:40:15.471Z,17.9444444444
2018-08-11T01:40:28.011Z,18
2018-08-11T01:40:40.522Z,17.9444444444
2018-08-11T01:40:53.038Z,17.9444444444
2018-08-11T01:41:05.563Z,17.9444444444
2018-08-11T01:41:18.076Z,17.9444444444
2018-08-11T01:41:30.597Z,17.9444444444
2018-08-11T01:41:43.116Z,17.9444444444
2018-08-11T01:41:55.628Z,17.9444444444
2018-08-11T01:42:08.146Z,17.9444444444
2018-08-11T01:42:20.665Z,17.9444444444
2018-08-11T01:42:33.195Z,17.9444444444
2018-08-11T01:42:45.738Z,17.8888888889
2018-08-11T01:42:58.260Z,17.9444444444
2018-08-11T01:43:10.763Z,17.8888888889
2018-08-11T01:43:23.308Z,17.8888888889
2018-08-11T01:43:35.840Z,17.8888888889
2018-08-11T01:43:48.357Z,17.8888888889
2018-08-11T01:44:00.915Z,17.8333333333
2018-08-11T01:44:13.873Z,17.8333333333
2018-08-11T01:44:27.616Z,17.8888888889
2018-08-11T01:44:40.155Z,17.8333333333
2018-08-11T01:44:52.691Z,17.8333333333
2018-08-11T01:45:05.246Z,17.8333333333
2018-08-11T01:45:17.774Z,17.8333333333
2018-08-11T01:45:30.459Z,17.8333333333
2018-08-11T01:45:42.989Z,17.8333333333
2018-08-11T01:45:55.509Z,17.8333333333
2018-08-11T01:46:08.025Z,17.8333333333
2018-08-11T01:46:20.550Z,17.8333333333
2018-08-11T01:46:33.076Z,17.8333333333
2018-08-11T01:46:45.617Z,17.8333333333
2018-08-11T01:46:58.137Z,17.7777777778
2018-08-11T01:47:10.677Z,17.8333333333
2018-08-11T01:47:23.216Z,17.7777777778
2018-08-11T01:47:35.765Z,17.7777777778
2018-08-11T01:47:48.312Z,17.7777777778
2018-08-11T01:48:00.842Z,17.7777777778
2018-08-11T01:48:13.384Z,17.7777777778
2018-08-11T01:48:25.885Z,17.7777777778
2018-08-11T01:48:38.432Z,17.7777777778
2018-08-11T01:48:50.957Z,17.7777777778
2018-08-11T01:49:03.626Z,17.7777777778
2018-08-11T01:49:16.163Z,17.7777777778
2018-08-11T01:49:28.707Z,17.7222222222
2018-08-11T01:49:41.231Z,17.7222222222
2018-08-11T01:49:53.977Z,17.7222222222
2018-08-11T01:50:06.510Z,17.7777777778
2018-08-11T01:50:19.084Z,17.7222222222
2018-08-11T01:50:31.646Z,17.7222222222
2018-08-11T01:50:44.175Z,17.7222222222
2018-08-11T01:50:56.757Z,17.7222222222
2018-08-11T01:51:09.383Z,17.7222222222
2018-08-11T01:51:21.941Z,17.7222222222
2018-08-11T01:51:34.477Z,17.7222222222
2018-08-11T01:51:47.124Z,17.7222222222
2018-08-11T01:51:59.642Z,17.6666666667
2018-08-11T01:52:12.150Z,17.7222222222
2018-08-11T01:52:24.677Z,17.6666666667
2018-08-11T01:52:37.195Z,17.6666666667
2018-08-11T01:52:49.712Z,17.6666666667
2018-08-11T01:53:02.214Z,17.6666666667
2018-08-11T01:53:14.728Z,17.7222222222
2018-08-11T01:53:27.252Z,17.7222222222
2018-08-11T01:53:39.763Z,17.6666666667
2018-08-11T01:53:52.270Z,17.6666666667
2018-08-11T01:54:04.778Z,17.6666666667
2018-08-11T01:54:17.280Z,17.6666666667
2018-08-11T01:54:29.806Z,17.6666666667
2018-08-11T01:54:42.315Z,17.6666666667
2018-08-11T01:54:54.811Z,17.6666666667
2018-08-11T01:55:07.345Z,17.6666666667
2018-08-11T01:55:19.911Z,17.6666666667
2018-08-11T01:55:32.404Z,17.6666666667
2018-08-11T01:55:44.962Z,17.6666666667
2018-08-11T01:55:57.489Z,17.6666666667
2018-08-11T01:56:10.031Z,17.6666666667
2018-08-11T01:56:22.540Z,17.6666666667
2018-08-11T01:56:35.046Z,17.6666666667
2018-08-11T01:56:47.586Z,17.6666666667
2018-08-11T01:57:00.102Z,17.6666666667
2018-08-11T01:57:12.708Z,17.6111111111
2018-08-11T01:57:25.215Z,17.6666666667
2018-08-11T01:57:37.719Z,17.6666666667
2018-08-11T01:57:50.300Z,17.6666666667
2018-08-11T01:58:02.838Z,17.6666666667
2018-08-11T01:58:15.351Z,17.6666666667
2018-08-11T01:58:27.867Z,17.6111111111
2018-08-11T01:58:40.393Z,17.6666666667
2018-08-11T01:58:52.906Z,17.6111111111
2018-08-11T01:59:05.425Z,17.6111111111
2018-08-11T01:59:17.938Z,17.6111111111
2018-08-11T01:59:30.471Z,17.6111111111
2018-08-11T01:59:42.979Z,17.6111111111
2018-08-11T01:59:55.536Z,17.6111111111
2018-08-11T02:00:08.075Z,17.6111111111
2018-08-11T02:00:20.616Z,17.6111111111
2018-08-11T02:00:33.156Z,17.6111111111
2018-08-11T02:00:45.724Z,17.5555555556
2018-08-11T02:00:58.275Z,17.5555555556
2018-08-11T02:01:10.804Z,17.6111111111
2018-08-11T02:01:23.387Z,17.5555555556
2018-08-11T02:01:35.918Z,17.6111111111
2018-08-11T02:01:48.454Z,17.6111111111
2018-08-11T02:02:00.990Z,17.6111111111
2018-08-11T02:02:13.562Z,17.5555555556
2018-08-11T02:02:26.161Z,17.6111111111
2018-08-11T02:02:38.876Z,17.6111111111
2018-08-11T02:02:51.400Z,17.5555555556
2018-08-11T02:03:03.905Z,17.6111111111
2018-08-11T02:03:16.429Z,17.5555555556
2018-08-11T02:03:28.964Z,17.6111111111
2018-08-11T02:03:41.673Z,17.5555555556
2018-08-11T02:03:54.188Z,17.5555555556
2018-08-11T02:04:06.736Z,17.6111111111
2018-08-11T02:04:19.446Z,17.5555555556
2018-08-11T02:04:32.024Z,17.5555555556
2018-08-11T02:04:44.546Z,17.5555555556
2018-08-11T02:04:57.059Z,17.6111111111
2018-08-11T02:05:09.564Z,17.6111111111
2018-08-11T02:05:22.103Z,17.5555555556
2018-08-11T02:05:34.653Z,17.5555555556
2018-08-11T02:05:47.177Z,17.5555555556
2018-08-11T02:05:59.693Z,17.5555555556
2018-08-11T02:06:12.233Z,17.6111111111
2018-08-11T02:06:24.777Z,17.6111111111
2018-08-11T02:06:37.304Z,17.5555555556
2018-08-11T02:06:49.810Z,17.5555555556
2018-08-11T02:07:02.410Z,17.6111111111
2018-08-11T02:07:14.918Z,17.6111111111
2018-08-11T02:07:27.429Z,17.6111111111
2018-08-11T02:07:39.962Z,17.6111111111
2018-08-11T02:07:52.519Z,17.6111111111
2018-08-11T02:08:05.046Z,17.5555555556
2018-08-11T02:08:17.566Z,17.6111111111
2018-08-11T02:08:30.093Z,17.6111111111
2018-08-11T02:08:42.620Z,17.5555555556
2018-08-11T02:08:55.253Z,17.6111111111
2018-08-11T02:09:07.793Z,17.6111111111
2018-08-11T02:09:20.311Z,17.6111111111
2018-08-11T02:09:32.847Z,17.6111111111
2018-08-11T02:09:45.423Z,17.6111111111
2018-08-11T02:09:57.945Z,17.6111111111
2018-08-11T02:10:10.469Z,17.6111111111
2018-08-11T02:10:23.010Z,17.6111111111
2018-08-11T02:10:35.527Z,17.5555555556
2018-08-11T02:10:48.033Z,17.6111111111
2018-08-11T02:11:00.594Z,17.6111111111
2018-08-11T02:11:13.406Z,17.6111111111
2018-08-11T02:11:26.961Z,17.6111111111
2018-08-11T02:11:39.474Z,17.6111111111
2018-08-11T02:11:51.999Z,17.6111111111